sensor_id;sensor_type;location;lat;lon;timestamp;P1;durP1;ratioP1;P2;durP2;ratioP2
49340;SDS011;35209;51.050;13.678;2023-09-19T00:00:51;0.80;;;0.50;;
49340;SDS011;35209;51.050;13.678;2023-09-19T00:05:57;0.60;;;0.52;;
49340;SDS011;35209;51.050;13.678;2023-09-19T00:11:00;0.50;;;0.50;;
49340;SDS011;35209;51.050;13.678;2023-09-19T00:16:10;0.95;;;0.40;;
49340;SDS011;35209;51.050;13.678;2023-09-19T00:21:13;0.90;;;0.55;;
49340;SDS011;35209;51.050;13.678;2023-09-19T00:26:16;0.60;;;0.50;;
49340;SDS011;35209;51.050;13.678;2023-09-19T00:31:22;0.80;;;0.60;;
49340;SDS011;35209;51.050;13.678;2023-09-19T00:36:24;0.60;;;0.60;;
49340;SDS011;35209;51.050;13.678;2023-09-19T00:41:26;0.75;;;0.60;;
49340;SDS011;35209;51.050;13.678;2023-09-19T00:46:31;0.70;;;0.60;;
49340;SDS011;35209;51.050;13.678;2023-09-19T00:51:34;0.50;;;0.47;;
49340;SDS011;35209;51.050;13.678;2023-09-19T00:56:37;1.40;;;0.85;;
49340;SDS011;35209;51.050;13.678;2023-09-19T01:01:41;0.88;;;0.80;;
49340;SDS011;35209;51.050;13.678;2023-09-19T01:06:47;1.60;;;0.80;;
49340;SDS011;35209;51.050;13.678;2023-09-19T01:11:55;1.20;;;0.70;;
49340;SDS011;35209;51.050;13.678;2023-09-19T01:17:14;1.05;;;0.90;;
49340;SDS011;35209;51.050;13.678;2023-09-19T01:22:26;1.73;;;0.90;;
49340;SDS011;35209;51.050;13.678;2023-09-19T01:28:15;1.10;;;1.00;;
49340;SDS011;35209;51.050;13.678;2023-09-19T01:49:27;1.70;;;1.33;;
49340;SDS011;35209;51.050;13.678;2023-09-19T01:55:08;2.28;;;1.48;;
49340;SDS011;35209;51.050;13.678;2023-09-19T02:00:11;1.90;;;1.15;;
49340;SDS011;35209;51.050;13.678;2023-09-19T02:05:22;3.00;;;1.30;;
49340;SDS011;35209;51.050;13.678;2023-09-19T02:10:25;1.60;;;1.50;;
49340;SDS011;35209;51.050;13.678;2023-09-19T02:15:27;1.80;;;1.15;;
49340;SDS011;35209;51.050;13.678;2023-09-19T02:20:29;1.67;;;1.23;;
49340;SDS011;35209;51.050;13.678;2023-09-19T02:25:31;1.10;;;0.90;;
49340;SDS011;35209;51.050;13.678;2023-09-19T02:30:34;0.95;;;0.90;;
49340;SDS011;35209;51.050;13.678;2023-09-19T02:35:37;0.93;;;0.60;;
49340;SDS011;35209;51.050;13.678;2023-09-19T02:40:39;0.63;;;0.32;;
49340;SDS011;35209;51.050;13.678;2023-09-19T02:45:41;0.82;;;0.43;;
49340;SDS011;35209;51.050;13.678;2023-09-19T02:50:43;0.47;;;0.32;;
49340;SDS011;35209;51.050;13.678;2023-09-19T02:55:46;1.45;;;0.50;;
49340;SDS011;35209;51.050;13.678;2023-09-19T03:00:48;0.68;;;0.35;;
49340;SDS011;35209;51.050;13.678;2023-09-19T03:05:52;0.55;;;0.38;;
49340;SDS011;35209;51.050;13.678;2023-09-19T03:10:56;0.38;;;0.30;;
49340;SDS011;35209;51.050;13.678;2023-09-19T03:15:58;0.63;;;0.40;;
49340;SDS011;35209;51.050;13.678;2023-09-19T03:21:02;0.85;;;0.38;;
49340;SDS011;35209;51.050;13.678;2023-09-19T03:26:04;1.08;;;0.65;;
49340;SDS011;35209;51.050;13.678;2023-09-19T03:31:07;1.30;;;0.40;;
49340;SDS011;35209;51.050;13.678;2023-09-19T03:36:10;1.20;;;0.30;;
49340;SDS011;35209;51.050;13.678;2023-09-19T03:41:14;1.27;;;0.30;;
49340;SDS011;35209;51.050;13.678;2023-09-19T03:46:20;1.20;;;0.30;;
49340;SDS011;35209;51.050;13.678;2023-09-19T03:51:22;0.30;;;0.20;;
49340;SDS011;35209;51.050;13.678;2023-09-19T03:56:24;0.70;;;0.30;;
49340;SDS011;35209;51.050;13.678;2023-09-19T04:01:26;1.30;;;0.50;;
49340;SDS011;35209;51.050;13.678;2023-09-19T04:06:29;0.75;;;0.30;;
49340;SDS011;35209;51.050;13.678;2023-09-19T04:11:32;0.35;;;0.32;;
49340;SDS011;35209;51.050;13.678;2023-09-19T04:16:34;0.30;;;0.30;;
49340;SDS011;35209;51.050;13.678;2023-09-19T04:21:37;0.40;;;0.30;;
49340;SDS011;35209;51.050;13.678;2023-09-19T04:26:39;1.52;;;0.30;;
49340;SDS011;35209;51.050;13.678;2023-09-19T04:31:41;0.45;;;0.38;;
49340;SDS011;35209;51.050;13.678;2023-09-19T04:36:45;0.65;;;0.40;;
49340;SDS011;35209;51.050;13.678;2023-09-19T04:41:47;0.20;;;0.20;;
49340;SDS011;35209;51.050;13.678;2023-09-19T04:46:49;1.20;;;0.20;;
49340;SDS011;35209;51.050;13.678;2023-09-19T04:51:52;0.47;;;0.38;;
49340;SDS011;35209;51.050;13.678;2023-09-19T04:56:55;0.20;;;0.20;;
49340;SDS011;35209;51.050;13.678;2023-09-19T05:01:57;0.80;;;0.40;;
49340;SDS011;35209;51.050;13.678;2023-09-19T05:06:58;0.30;;;0.30;;
49340;SDS011;35209;51.050;13.678;2023-09-19T05:12:02;1.02;;;0.30;;
49340;SDS011;35209;51.050;13.678;2023-09-19T05:17:04;0.40;;;0.40;;
49340;SDS011;35209;51.050;13.678;2023-09-19T05:22:06;1.23;;;0.50;;
49340;SDS011;35209;51.050;13.678;2023-09-19T05:27:08;0.30;;;0.30;;
49340;SDS011;35209;51.050;13.678;2023-09-19T05:32:13;0.38;;;0.38;;
49340;SDS011;35209;51.050;13.678;2023-09-19T05:37:15;0.55;;;0.40;;
49340;SDS011;35209;51.050;13.678;2023-09-19T05:42:17;0.60;;;0.40;;
49340;SDS011;35209;51.050;13.678;2023-09-19T05:47:19;0.30;;;0.30;;
49340;SDS011;35209;51.050;13.678;2023-09-19T05:52:21;1.02;;;0.40;;
49340;SDS011;35209;51.050;13.678;2023-09-19T05:57:23;1.65;;;0.68;;
49340;SDS011;35209;51.050;13.678;2023-09-19T06:02:26;2.58;;;1.00;;
49340;SDS011;35209;51.050;13.678;2023-09-19T06:07:30;2.35;;;0.60;;
49340;SDS011;35209;51.050;13.678;2023-09-19T06:12:38;1.15;;;0.60;;
49340;SDS011;35209;51.050;13.678;2023-09-19T06:17:49;0.95;;;0.65;;
49340;SDS011;35209;51.050;13.678;2023-09-19T06:27:54;0.68;;;0.30;;
49340;SDS011;35209;51.050;13.678;2023-09-19T06:32:57;1.15;;;0.50;;
49340;SDS011;35209;51.050;13.678;2023-09-19T06:38:04;0.82;;;0.50;;
49340;SDS011;35209;51.050;13.678;2023-09-19T06:43:07;0.50;;;0.40;;
49340;SDS011;35209;51.050;13.678;2023-09-19T06:48:10;0.47;;;0.25;;
49340;SDS011;35209;51.050;13.678;2023-09-19T06:53:11;0.22;;;0.20;;
49340;SDS011;35209;51.050;13.678;2023-09-19T06:58:13;0.30;;;0.30;;
49340;SDS011;35209;51.050;13.678;2023-09-19T07:03:18;0.50;;;0.32;;
49340;SDS011;35209;51.050;13.678;2023-09-19T07:08:22;0.50;;;0.40;;
49340;SDS011;35209;51.050;13.678;2023-09-19T07:13:24;0.30;;;0.22;;
49340;SDS011;35209;51.050;13.678;2023-09-19T07:18:26;0.57;;;0.40;;
49340;SDS011;35209;51.050;13.678;2023-09-19T07:23:28;0.63;;;0.28;;
49340;SDS011;35209;51.050;13.678;2023-09-19T07:28:31;0.32;;;0.20;;
49340;SDS011;35209;51.050;13.678;2023-09-19T07:33:34;0.30;;;0.30;;
49340;SDS011;35209;51.050;13.678;2023-09-19T07:38:36;0.30;;;0.20;;
49340;SDS011;35209;51.050;13.678;2023-09-19T07:43:37;0.30;;;0.22;;
49340;SDS011;35209;51.050;13.678;2023-09-19T07:48:42;0.43;;;0.30;;
49340;SDS011;35209;51.050;13.678;2023-09-19T07:53:49;0.30;;;0.30;;
49340;SDS011;35209;51.050;13.678;2023-09-19T07:58:50;1.08;;;0.40;;
49340;SDS011;35209;51.050;13.678;2023-09-19T08:03:53;0.43;;;0.20;;
49340;SDS011;35209;51.050;13.678;2023-09-19T08:08:55;0.20;;;0.15;;
49340;SDS011;35209;51.050;13.678;2023-09-19T08:13:58;0.43;;;0.20;;
49340;SDS011;35209;51.050;13.678;2023-09-19T08:19:00;0.20;;;0.10;;
49340;SDS011;35209;51.050;13.678;2023-09-19T08:24:02;0.20;;;0.20;;
49340;SDS011;35209;51.050;13.678;2023-09-19T08:29:05;0.43;;;0.20;;
49340;SDS011;35209;51.050;13.678;2023-09-19T08:34:11;0.30;;;0.20;;
49340;SDS011;35209;51.050;13.678;2023-09-19T08:39:13;0.40;;;0.28;;
49340;SDS011;35209;51.050;13.678;2023-09-19T08:44:15;0.63;;;0.20;;
49340;SDS011;35209;51.050;13.678;2023-09-19T08:54:35;0.38;;;0.30;;
49340;SDS011;35209;51.050;13.678;2023-09-19T08:59:42;0.50;;;0.20;;
49340;SDS011;35209;51.050;13.678;2023-09-19T09:04:46;0.40;;;0.20;;
49340;SDS011;35209;51.050;13.678;2023-09-19T09:09:51;0.90;;;0.30;;
49340;SDS011;35209;51.050;13.678;2023-09-19T09:14:53;0.35;;;0.20;;
49340;SDS011;35209;51.050;13.678;2023-09-19T09:19:55;0.75;;;0.35;;
49340;SDS011;35209;51.050;13.678;2023-09-19T09:24:57;0.70;;;0.30;;
49340;SDS011;35209;51.050;13.678;2023-09-19T09:29:59;0.40;;;0.40;;
49340;SDS011;35209;51.050;13.678;2023-09-19T09:35:01;0.20;;;0.20;;
49340;SDS011;35209;51.050;13.678;2023-09-19T09:40:11;0.85;;;0.55;;
49340;SDS011;35209;51.050;13.678;2023-09-19T09:50:38;0.28;;;0.20;;
49340;SDS011;35209;51.050;13.678;2023-09-19T09:56:01;0.30;;;0.20;;
49340;SDS011;35209;51.050;13.678;2023-09-19T10:01:07;0.43;;;0.20;;
49340;SDS011;35209;51.050;13.678;2023-09-19T10:06:16;0.30;;;0.20;;
49340;SDS011;35209;51.050;13.678;2023-09-19T10:11:25;0.50;;;0.20;;
49340;SDS011;35209;51.050;13.678;2023-09-19T10:16:32;0.20;;;0.20;;
49340;SDS011;35209;51.050;13.678;2023-09-19T10:21:36;0.20;;;0.20;;
49340;SDS011;35209;51.050;13.678;2023-09-19T10:26:41;0.30;;;0.30;;
49340;SDS011;35209;51.050;13.678;2023-09-19T10:31:46;1.90;;;0.20;;
49340;SDS011;35209;51.050;13.678;2023-09-19T10:36:49;0.60;;;0.30;;
49340;SDS011;35209;51.050;13.678;2023-09-19T10:41:53;0.50;;;0.38;;
49340;SDS011;35209;51.050;13.678;2023-09-19T10:47:00;0.43;;;0.30;;
49340;SDS011;35209;51.050;13.678;2023-09-19T10:52:04;0.52;;;0.40;;
49340;SDS011;35209;51.050;13.678;2023-09-19T10:57:09;0.20;;;0.20;;
49340;SDS011;35209;51.050;13.678;2023-09-19T11:02:17;0.43;;;0.30;;
49340;SDS011;35209;51.050;13.678;2023-09-19T11:07:19;0.20;;;0.20;;
49340;SDS011;35209;51.050;13.678;2023-09-19T11:17:36;0.40;;;0.40;;
49340;SDS011;35209;51.050;13.678;2023-09-19T11:43:43;0.50;;;0.47;;
49340;SDS011;35209;51.050;13.678;2023-09-19T11:48:45;0.43;;;0.30;;
49340;SDS011;35209;51.050;13.678;2023-09-19T11:53:51;0.50;;;0.23;;
49340;SDS011;35209;51.050;13.678;2023-09-19T11:58:54;0.40;;;0.40;;
49340;SDS011;35209;51.050;13.678;2023-09-19T12:03:58;0.63;;;0.60;;
49340;SDS011;35209;51.050;13.678;2023-09-19T12:14:08;0.30;;;0.30;;
49340;SDS011;35209;51.050;13.678;2023-09-19T12:19:18;0.40;;;0.30;;
49340;SDS011;35209;51.050;13.678;2023-09-19T12:24:25;0.30;;;0.20;;
49340;SDS011;35209;51.050;13.678;2023-09-19T12:29:32;1.95;;;0.40;;
49340;SDS011;35209;51.050;13.678;2023-09-19T12:34:49;1.23;;;0.43;;
49340;SDS011;35209;51.050;13.678;2023-09-19T12:40:03;0.20;;;0.20;;
49340;SDS011;35209;51.050;13.678;2023-09-19T12:45:16;0.40;;;0.35;;
49340;SDS011;35209;51.050;13.678;2023-09-19T12:50:19;0.98;;;0.30;;
49340;SDS011;35209;51.050;13.678;2023-09-19T12:55:30;0.30;;;0.25;;
49340;SDS011;35209;51.050;13.678;2023-09-19T13:00:39;0.50;;;0.40;;
49340;SDS011;35209;51.050;13.678;2023-09-19T13:05:55;0.95;;;0.40;;
49340;SDS011;35209;51.050;13.678;2023-09-19T13:16:08;1.25;;;0.40;;
49340;SDS011;35209;51.050;13.678;2023-09-19T13:21:11;0.22;;;0.20;;
49340;SDS011;35209;51.050;13.678;2023-09-19T13:26:17;0.75;;;0.30;;
49340;SDS011;35209;51.050;13.678;2023-09-19T13:31:19;0.40;;;0.40;;
49340;SDS011;35209;51.050;13.678;2023-09-19T13:36:22;0.95;;;0.47;;
49340;SDS011;35209;51.050;13.678;2023-09-19T13:41:24;0.52;;;0.32;;
49340;SDS011;35209;51.050;13.678;2023-09-19T13:46:26;0.40;;;0.40;;
49340;SDS011;35209;51.050;13.678;2023-09-19T13:51:30;0.43;;;0.30;;
49340;SDS011;35209;51.050;13.678;2023-09-19T13:56:32;0.80;;;0.60;;
49340;SDS011;35209;51.050;13.678;2023-09-19T14:01:35;0.40;;;0.20;;
49340;SDS011;35209;51.050;13.678;2023-09-19T14:06:36;0.38;;;0.30;;
49340;SDS011;35209;51.050;13.678;2023-09-19T14:11:39;0.35;;;0.20;;
49340;SDS011;35209;51.050;13.678;2023-09-19T14:16:41;0.77;;;0.40;;
49340;SDS011;35209;51.050;13.678;2023-09-19T14:21:43;0.38;;;0.30;;
49340;SDS011;35209;51.050;13.678;2023-09-19T14:26:45;0.30;;;0.30;;
49340;SDS011;35209;51.050;13.678;2023-09-19T14:31:47;0.73;;;0.40;;
49340;SDS011;35209;51.050;13.678;2023-09-19T14:36:49;1.10;;;0.38;;
49340;SDS011;35209;51.050;13.678;2023-09-19T14:41:51;1.00;;;0.60;;
49340;SDS011;35209;51.050;13.678;2023-09-19T14:46:53;0.47;;;0.40;;
49340;SDS011;35209;51.050;13.678;2023-09-19T14:51:56;1.00;;;0.47;;
49340;SDS011;35209;51.050;13.678;2023-09-19T14:56:58;0.82;;;0.55;;
49340;SDS011;35209;51.050;13.678;2023-09-19T15:02:05;0.68;;;0.50;;
49340;SDS011;35209;51.050;13.678;2023-09-19T15:07:08;0.55;;;0.38;;
49340;SDS011;35209;51.050;13.678;2023-09-19T15:12:10;0.57;;;0.45;;
49340;SDS011;35209;51.050;13.678;2023-09-19T15:17:15;1.17;;;0.40;;
49340;SDS011;35209;51.050;13.678;2023-09-19T15:22:18;0.50;;;0.50;;
49340;SDS011;35209;51.050;13.678;2023-09-19T15:27:21;0.38;;;0.35;;
49340;SDS011;35209;51.050;13.678;2023-09-19T15:32:23;1.02;;;0.50;;
49340;SDS011;35209;51.050;13.678;2023-09-19T15:37:25;0.50;;;0.40;;
49340;SDS011;35209;51.050;13.678;2023-09-19T15:42:27;0.90;;;0.63;;
49340;SDS011;35209;51.050;13.678;2023-09-19T15:47:29;0.45;;;0.32;;
49340;SDS011;35209;51.050;13.678;2023-09-19T15:52:32;0.75;;;0.75;;
49340;SDS011;35209;51.050;13.678;2023-09-19T15:57:36;0.70;;;0.70;;
49340;SDS011;35209;51.050;13.678;2023-09-19T16:02:38;1.15;;;0.47;;
49340;SDS011;35209;51.050;13.678;2023-09-19T16:07:40;1.23;;;0.60;;
49340;SDS011;35209;51.050;13.678;2023-09-19T16:12:42;0.68;;;0.50;;
49340;SDS011;35209;51.050;13.678;2023-09-19T16:17:44;1.00;;;0.60;;
49340;SDS011;35209;51.050;13.678;2023-09-19T16:22:46;1.00;;;0.70;;
49340;SDS011;35209;51.050;13.678;2023-09-19T16:27:48;2.67;;;1.77;;
49340;SDS011;35209;51.050;13.678;2023-09-19T16:32:50;3.33;;;1.98;;
49340;SDS011;35209;51.050;13.678;2023-09-19T16:37:52;1.15;;;0.70;;
49340;SDS011;35209;51.050;13.678;2023-09-19T16:42:54;0.52;;;0.50;;
49340;SDS011;35209;51.050;13.678;2023-09-19T16:47:55;1.25;;;0.65;;
49340;SDS011;35209;51.050;13.678;2023-09-19T16:52:57;0.98;;;0.50;;
49340;SDS011;35209;51.050;13.678;2023-09-19T16:57:59;0.70;;;0.65;;
49340;SDS011;35209;51.050;13.678;2023-09-19T17:03:01;1.17;;;0.70;;
49340;SDS011;35209;51.050;13.678;2023-09-19T17:08:07;0.80;;;0.63;;
49340;SDS011;35209;51.050;13.678;2023-09-19T17:13:10;0.60;;;0.60;;
49340;SDS011;35209;51.050;13.678;2023-09-19T17:18:12;0.98;;;0.68;;
49340;SDS011;35209;51.050;13.678;2023-09-19T17:23:14;1.38;;;1.00;;
49340;SDS011;35209;51.050;13.678;2023-09-19T17:28:16;1.08;;;0.80;;
49340;SDS011;35209;51.050;13.678;2023-09-19T17:33:17;1.80;;;0.70;;
49340;SDS011;35209;51.050;13.678;2023-09-19T17:38:19;0.98;;;0.80;;
49340;SDS011;35209;51.050;13.678;2023-09-19T17:43:21;0.75;;;0.75;;
49340;SDS011;35209;51.050;13.678;2023-09-19T17:48:23;1.05;;;0.70;;
49340;SDS011;35209;51.050;13.678;2023-09-19T17:53:25;2.30;;;0.80;;
49340;SDS011;35209;51.050;13.678;2023-09-19T17:58:27;0.95;;;0.80;;
49340;SDS011;35209;51.050;13.678;2023-09-19T18:03:29;1.10;;;0.88;;
49340;SDS011;35209;51.050;13.678;2023-09-19T18:08:33;1.27;;;0.80;;
49340;SDS011;35209;51.050;13.678;2023-09-19T18:13:35;1.33;;;0.80;;
49340;SDS011;35209;51.050;13.678;2023-09-19T18:18:37;1.58;;;1.10;;
49340;SDS011;35209;51.050;13.678;2023-09-19T18:23:39;1.52;;;1.08;;
49340;SDS011;35209;51.050;13.678;2023-09-19T18:28:40;1.73;;;0.85;;
49340;SDS011;35209;51.050;13.678;2023-09-19T18:33:45;1.30;;;0.90;;
49340;SDS011;35209;51.050;13.678;2023-09-19T18:38:51;1.77;;;1.08;;
49340;SDS011;35209;51.050;13.678;2023-09-19T18:43:54;1.25;;;0.95;;
49340;SDS011;35209;51.050;13.678;2023-09-19T18:48:57;1.45;;;0.90;;
49340;SDS011;35209;51.050;13.678;2023-09-19T18:53:59;1.10;;;0.90;;
49340;SDS011;35209;51.050;13.678;2023-09-19T18:59:14;1.42;;;0.80;;
49340;SDS011;35209;51.050;13.678;2023-09-19T19:04:17;1.17;;;0.68;;
49340;SDS011;35209;51.050;13.678;2023-09-19T19:09:20;0.95;;;0.70;;
49340;SDS011;35209;51.050;13.678;2023-09-19T19:14:22;1.42;;;1.00;;
49340;SDS011;35209;51.050;13.678;2023-09-19T19:19:24;1.98;;;0.90;;
49340;SDS011;35209;51.050;13.678;2023-09-19T19:24:27;1.30;;;1.00;;
49340;SDS011;35209;51.050;13.678;2023-09-19T19:29:30;1.38;;;1.10;;
49340;SDS011;35209;51.050;13.678;2023-09-19T19:34:32;1.65;;;1.00;;
49340;SDS011;35209;51.050;13.678;2023-09-19T19:39:34;1.48;;;1.15;;
49340;SDS011;35209;51.050;13.678;2023-09-19T19:44:36;1.15;;;0.90;;
49340;SDS011;35209;51.050;13.678;2023-09-19T19:49:38;1.63;;;0.90;;
49340;SDS011;35209;51.050;13.678;2023-09-19T19:54:40;1.85;;;1.05;;
49340;SDS011;35209;51.050;13.678;2023-09-19T19:59:42;1.45;;;0.80;;
49340;SDS011;35209;51.050;13.678;2023-09-19T20:04:44;1.00;;;0.82;;
49340;SDS011;35209;51.050;13.678;2023-09-19T20:09:46;1.23;;;0.93;;
49340;SDS011;35209;51.050;13.678;2023-09-19T20:14:47;1.60;;;1.20;;
49340;SDS011;35209;51.050;13.678;2023-09-19T20:19:49;1.40;;;1.05;;
49340;SDS011;35209;51.050;13.678;2023-09-19T20:24:55;1.15;;;0.70;;
49340;SDS011;35209;51.050;13.678;2023-09-19T20:29:56;1.17;;;1.00;;
49340;SDS011;35209;51.050;13.678;2023-09-19T20:34:58;1.52;;;1.08;;
49340;SDS011;35209;51.050;13.678;2023-09-19T20:40:01;1.92;;;1.15;;
49340;SDS011;35209;51.050;13.678;2023-09-19T20:45:03;1.40;;;1.05;;
49340;SDS011;35209;51.050;13.678;2023-09-19T20:50:06;1.00;;;0.90;;
49340;SDS011;35209;51.050;13.678;2023-09-19T20:55:09;2.50;;;1.10;;
49340;SDS011;35209;51.050;13.678;2023-09-19T21:00:11;1.75;;;1.30;;
49340;SDS011;35209;51.050;13.678;2023-09-19T21:05:14;1.60;;;1.23;;
49340;SDS011;35209;51.050;13.678;2023-09-19T21:10:18;1.73;;;1.17;;
49340;SDS011;35209;51.050;13.678;2023-09-19T21:15:20;2.75;;;1.30;;
49340;SDS011;35209;51.050;13.678;2023-09-19T21:20:21;1.63;;;0.90;;
49340;SDS011;35209;51.050;13.678;2023-09-19T21:25:27;1.67;;;1.00;;
49340;SDS011;35209;51.050;13.678;2023-09-19T21:30:30;1.85;;;0.90;;
49340;SDS011;35209;51.050;13.678;2023-09-19T21:35:32;1.73;;;0.90;;
49340;SDS011;35209;51.050;13.678;2023-09-19T21:40:34;1.30;;;1.00;;
49340;SDS011;35209;51.050;13.678;2023-09-19T21:45:36;1.00;;;0.82;;
49340;SDS011;35209;51.050;13.678;2023-09-19T21:50:37;1.67;;;0.90;;
49340;SDS011;35209;51.050;13.678;2023-09-19T21:55:39;1.02;;;0.80;;
49340;SDS011;35209;51.050;13.678;2023-09-19T22:00:41;1.10;;;0.90;;
49340;SDS011;35209;51.050;13.678;2023-09-19T22:05:51;1.15;;;0.88;;
49340;SDS011;35209;51.050;13.678;2023-09-19T22:10:53;2.17;;;0.90;;
49340;SDS011;35209;51.050;13.678;2023-09-19T22:15:55;1.60;;;0.95;;
49340;SDS011;35209;51.050;13.678;2023-09-19T22:21:00;0.63;;;0.60;;
49340;SDS011;35209;51.050;13.678;2023-09-19T22:26:09;8.77;;;1.10;;
49340;SDS011;35209;51.050;13.678;2023-09-19T22:31:22;1.38;;;0.82;;
49340;SDS011;35209;51.050;13.678;2023-09-19T22:36:27;0.88;;;0.80;;
49340;SDS011;35209;51.050;13.678;2023-09-19T22:41:34;1.00;;;0.80;;
49340;SDS011;35209;51.050;13.678;2023-09-19T22:46:36;1.35;;;0.88;;
49340;SDS011;35209;51.050;13.678;2023-09-19T22:51:38;1.45;;;0.90;;
49340;SDS011;35209;51.050;13.678;2023-09-19T22:56:47;1.60;;;0.70;;
49340;SDS011;35209;51.050;13.678;2023-09-19T23:01:53;1.00;;;0.80;;
49340;SDS011;35209;51.050;13.678;2023-09-19T23:06:55;1.25;;;0.90;;
49340;SDS011;35209;51.050;13.678;2023-09-19T23:12:01;0.90;;;0.70;;
49340;SDS011;35209;51.050;13.678;2023-09-19T23:22:24;0.88;;;0.68;;
49340;SDS011;35209;51.050;13.678;2023-09-19T23:27:29;1.83;;;0.70;;
49340;SDS011;35209;51.050;13.678;2023-09-19T23:32:37;1.45;;;0.95;;
49340;SDS011;35209;51.050;13.678;2023-09-19T23:37:39;1.88;;;0.90;;
49340;SDS011;35209;51.050;13.678;2023-09-19T23:42:41;1.17;;;0.80;;
49340;SDS011;35209;51.050;13.678;2023-09-19T23:47:43;1.10;;;1.00;;
49340;SDS011;35209;51.050;13.678;2023-09-19T23:52:47;0.95;;;0.65;;
49340;SDS011;35209;51.050;13.678;2023-09-19T23:57:49;0.82;;;0.70;;
